Time;durP1;ratioP1;P1;durP2;ratioP2;P2;SDS_P1;SDS_P2;PMS_P1;PMS_P2;Temp;Humidity;BMP_temperature;BMP_pressure;BME280_temperature;BME280_humidity;BME280_pressure;Samples;Min_cycle;Max_cycle;Signal;HPM_P1;HPM_P2
2023/09/05 00:01:47;;;;;;;;;;;;;;;26.11;57.57;101150.56;5052924;28;19939;-85
2023/09/05 00:04:13;;;;;;;;;;;;;;;26.08;57.75;101140.75;5055732;28;20015;-85
2023/09/05 00:06:39;;;;;;;;;;;;;;;26.06;57.40;101150.59;5054769;28;19917;-89
2023/09/05 00:09:05;;;;;;;;;;;;;;;26.06;57.38;101144.34;5070696;28;19916;-85
2023/09/05 00:11:30;;;;;;;;;;;;;;;26.08;57.32;101137.19;5059075;28;19921;-87
2023/09/05 00:13:56;;;;;;;;;;;;;;;25.99;57.37;101149.72;5049368;28;19920;-86
2023/09/05 00:16:21;;;;;;;;;;;;;;;26.04;57.01;101155.03;5059769;28;20355;-86
2023/09/05 00:18:47;;;;;;;;;;;;;;;26.04;56.90;101170.22;5052750;28;20400;-84
2023/09/05 00:21:15;;;;;;;;;;;;;;;26.02;57.00;101185.41;5057339;28;19971;-87
2023/09/05 00:23:40;;;;;;;;;;;;;;;26.00;56.94;101199.66;5068405;28;19923;-84
2023/09/05 00:26:05;;;;;;;;;;;;;;;25.93;57.10;101181.84;5052548;28;19917;-85
2023/09/05 00:28:33;;;;;;;;;;;;;;;26.00;57.10;101186.28;5052176;28;20317;-84
2023/09/05 00:30:59;;;;;;;;;;;;;;;26.02;57.17;101194.31;5056975;28;19939;-85
2023/09/05 00:33:24;;;;;;;;;;;;;;;26.03;56.72;101187.16;5058836;28;19916;-85
2023/09/05 00:35:53;;;;;;;;;;;;;;;25.96;56.85;101191.66;5054531;28;19920;-85
2023/09/05 00:38:19;;;;;;;;;;;;;;;25.92;56.62;101189.88;5062426;28;19923;-84
2023/09/05 00:40:44;;;;;;;;;;;;;;;25.91;56.63;101182.75;5052833;28;19916;-84
2023/09/05 00:43:10;;;;;;;;;;;;;;;25.90;56.67;101159.53;5054994;28;19917;-85
2023/09/05 00:45:37;;;;;;;;;;;;;;;25.89;56.86;101157.78;5051509;28;19940;-85
2023/09/05 00:48:07;;;;;;;;;;;;;;;25.93;56.40;101159.53;5052535;28;19924;-85
2023/09/05 00:50:32;;;;;;;;;;;;;;;25.83;56.39;101157.75;5057233;28;19923;-85
2023/09/05 00:52:58;;;;;;;;;;;;;;;25.90;56.84;101148.84;5055590;28;19921;-85
2023/09/05 00:55:23;;;;;;;;;;;;;;;25.88;56.63;101162.19;5049046;28;19952;-86
2023/09/05 00:57:49;;;;;;;;;;;;;;;25.91;56.41;101158.66;5057329;28;20314;-86
2023/09/05 01:00:17;;;;;;;;;;;;;;;25.90;56.17;101164.91;5062515;28;20366;-84
2023/09/05 01:02:43;;;;;;;;;;;;;;;25.82;56.66;101172.91;5051984;28;19948;-85
2023/09/05 01:05:08;;;;;;;;;;;;;;;25.91;56.11;101188.09;5052041;28;19917;-84
2023/09/05 01:07:49;;;;;;;;;;;;;;;25.92;56.65;101192.53;5057543;28;19921;-86
2023/09/05 01:10:20;;;;;;;;;;;;;;;25.92;56.21;101189.88;5055883;28;20016;-84
2023/09/05 01:12:45;;;;;;;;;;;;;;;25.92;56.30;101200.56;5054260;28;19937;-84
2023/09/05 01:15:10;;;;;;;;;;;;;;;25.88;56.34;101201.44;5043790;28;19912;-85
2023/09/05 01:17:36;;;;;;;;;;;;;;;25.90;56.36;101200.56;5050174;28;19996;-84
2023/09/05 01:20:01;;;;;;;;;;;;;;;25.86;56.31;101195.19;5052041;28;20424;-84
2023/09/05 01:22:34;;;;;;;;;;;;;;;25.86;56.37;101185.38;5045967;28;20291;-85
2023/09/05 01:24:59;;;;;;;;;;;;;;;25.87;56.21;101172.91;5039228;28;20023;-84
2023/09/05 01:27:25;;;;;;;;;;;;;;;25.86;56.37;101168.44;5041929;28;20389;-86
2023/09/05 01:29:50;;;;;;;;;;;;;;;25.86;56.13;101172.00;5043353;28;19917;-86
2023/09/05 01:32:17;;;;;;;;;;;;;;;25.81;56.08;101181.84;5054054;28;19921;-86
2023/09/05 01:34:43;;;;;;;;;;;;;;;25.84;56.10;101187.16;5053673;28;20374;-85
2023/09/05 01:37:14;;;;;;;;;;;;;;;25.87;56.15;101188.97;5051116;28;19917;-85
2023/09/05 01:39:40;;;;;;;;;;;;;;;25.81;56.00;101184.50;5068084;28;20069;-85
2023/09/05 01:42:05;;;;;;;;;;;;;;;25.80;56.35;101182.72;5055826;28;19963;-84
2023/09/05 01:44:32;;;;;;;;;;;;;;;25.83;55.89;101195.22;5053391;28;19920;-83
2023/09/05 01:46:58;;;;;;;;;;;;;;;25.79;55.98;101195.22;5061950;28;19917;-84
2023/09/05 01:49:23;;;;;;;;;;;;;;;25.82;56.34;101196.97;5052281;28;19925;-85
2023/09/05 01:51:49;;;;;;;;;;;;;;;25.78;55.91;101200.56;5062995;28;19939;-84
2023/09/05 01:54:14;;;;;;;;;;;;;;;25.76;56.03;101188.97;5033608;28;19916;-84
2023/09/05 01:56:40;;;;;;;;;;;;;;;25.80;56.31;101190.75;5066233;28;20401;-85
2023/09/05 01:59:05;;;;;;;;;;;;;;;25.80;56.17;101183.63;5058318;28;19916;-84
2023/09/05 02:01:32;;;;;;;;;;;;;;;25.77;56.28;101183.63;5053235;28;19917;-83
2023/09/05 02:03:57;;;;;;;;;;;;;;;25.84;56.32;101184.50;5052281;28;20382;-86
2023/09/05 02:06:23;;;;;;;;;;;;;;;25.83;56.34;101176.50;5034424;28;19920;-84
2023/09/05 02:08:48;;;;;;;;;;;;;;;25.83;55.78;101177.38;5054761;28;20393;-84
2023/09/05 02:11:14;;;;;;;;;;;;;;;25.75;55.97;101173.81;5038101;28;19963;-86
2023/09/05 02:13:40;;;;;;;;;;;;;;;25.66;56.34;101171.19;5061001;28;19916;-84
2023/09/05 02:16:06;;;;;;;;;;;;;;;25.62;56.23;101161.38;5056134;28;19966;-85
2023/09/05 02:18:31;;;;;;;;;;;;;;;25.66;56.57;101164.03;5058079;28;19970;-85
2023/09/05 02:20:58;;;;;;;;;;;;;;;25.70;56.24;101151.56;5074608;28;19955;-85
2023/09/05 02:23:23;;;;;;;;;;;;;;;25.59;56.19;101147.13;5062513;28;19946;-85
2023/09/05 02:25:56;;;;;;;;;;;;;;;25.58;56.38;101161.38;5055100;28;19912;-85
2023/09/05 02:28:21;;;;;;;;;;;;;;;25.53;56.63;101163.16;5057031;28;19917;-86
2023/09/05 02:30:47;;;;;;;;;;;;;;;25.65;56.55;101166.72;5055536;28;19920;-85
2023/09/05 02:33:12;;;;;;;;;;;;;;;25.59;56.61;101170.31;5053472;28;20388;-84
2023/09/05 02:35:37;;;;;;;;;;;;;;;25.58;56.60;101166.72;5065644;28;20439;-86
2023/09/05 02:38:03;;;;;;;;;;;;;;;25.57;56.56;101162.28;5052177;28;20393;-86
2023/09/05 02:40:28;;;;;;;;;;;;;;;25.63;56.38;101158.69;5071820;28;19935;-85
2023/09/05 02:42:54;;;;;;;;;;;;;;;25.58;56.38;101157.81;5058022;28;19928;-84
2023/09/05 02:45:19;;;;;;;;;;;;;;;25.53;56.69;101160.50;5054628;28;19919;-85
2023/09/05 02:47:44;;;;;;;;;;;;;;;25.46;56.69;101163.16;5056769;28;19921;-84
2023/09/05 02:50:10;;;;;;;;;;;;;;;25.57;56.75;101169.41;5057344;28;19923;-86
2023/09/05 02:52:36;;;;;;;;;;;;;;;25.62;56.27;101172.97;5043867;28;19920;-86
2023/09/05 02:55:03;;;;;;;;;;;;;;;25.68;56.33;101162.25;5058164;28;19962;-87
2023/09/05 02:57:28;;;;;;;;;;;;;;;25.70;56.31;101163.13;5071595;28;20381;-85
2023/09/05 02:59:53;;;;;;;;;;;;;;;25.73;56.45;101167.59;5064452;28;19923;-85
2023/09/05 03:02:19;;;;;;;;;;;;;;;25.71;56.38;101159.56;5073708;28;19916;-85
2023/09/05 03:04:45;;;;;;;;;;;;;;;25.63;56.91;101181.88;5044122;28;19967;-85
2023/09/05 03:07:10;;;;;;;;;;;;;;;25.72;56.63;101177.41;5054491;28;20003;-85
2023/09/05 03:09:35;;;;;;;;;;;;;;;25.68;56.92;101167.59;5056642;28;19950;-86
2023/09/05 03:12:02;;;;;;;;;;;;;;;25.70;56.84;101181.88;5031816;28;20095;-85
2023/09/05 03:14:27;;;;;;;;;;;;;;;25.72;57.22;101169.38;5064874;28;19920;-85
2023/09/05 03:16:52;;;;;;;;;;;;;;;25.68;56.96;101167.59;5061574;28;19916;-85
2023/09/05 03:19:21;;;;;;;;;;;;;;;25.72;57.34;101168.50;5060133;28;19916;-87
2023/09/05 03:21:47;;;;;;;;;;;;;;;25.71;57.20;101164.91;5059707;28;19920;-84
2023/09/05 03:24:17;;;;;;;;;;;;;;;25.71;57.02;101156.88;5057607;28;19971;-85
2023/09/05 03:26:44;;;;;;;;;;;;;;;25.76;56.86;101164.88;5065142;28;19923;-84
2023/09/05 03:29:10;;;;;;;;;;;;;;;25.67;57.01;101165.81;5046652;28;19916;-83
2023/09/05 03:31:35;;;;;;;;;;;;;;;25.62;57.37;101162.25;5066122;28;20302;-85
2023/09/05 03:34:01;;;;;;;;;;;;;;;25.61;57.42;101165.81;5063222;28;20388;-85
2023/09/05 03:36:27;;;;;;;;;;;;;;;25.62;57.36;101175.63;5067054;28;20063;-86
2023/09/05 03:38:52;;;;;;;;;;;;;;;25.51;57.39;101178.31;5051659;28;19916;-85
2023/09/05 03:41:18;;;;;;;;;;;;;;;25.51;57.16;101169.41;5054404;28;19924;-84
2023/09/05 03:43:43;;;;;;;;;;;;;;;25.45;57.51;101178.31;5048227;28;19994;-84
2023/09/05 03:46:09;;;;;;;;;;;;;;;25.56;57.22;101170.28;5059084;28;20481;-85
2023/09/05 03:48:34;;;;;;;;;;;;;;;25.53;57.26;101187.25;5060017;28;19931;-86
2023/09/05 03:50:59;;;;;;;;;;;;;;;25.47;57.41;101173.88;5066883;28;20398;-85
2023/09/05 03:53:25;;;;;;;;;;;;;;;25.37;57.34;101172.09;5060587;28;20401;-85
2023/09/05 03:55:51;;;;;;;;;;;;;;;25.39;57.23;101162.28;5057849;28;20301;-84
2023/09/05 03:58:16;;;;;;;;;;;;;;;25.36;57.17;101170.31;5060301;28;19923;-86
2023/09/05 04:00:42;;;;;;;;;;;;;;;25.37;57.16;101169.41;5066232;28;19923;-85
2023/09/05 04:03:10;;;;;;;;;;;;;;;25.30;56.88;101160.50;5053423;28;19921;-85
2023/09/05 04:05:36;;;;;;;;;;;;;;;25.29;57.00;101155.16;5062889;28;19921;-84
2023/09/05 04:08:01;;;;;;;;;;;;;;;25.33;57.00;101154.25;5043554;28;19917;-88
2023/09/05 04:10:27;;;;;;;;;;;;;;;25.34;56.69;101154.28;5058391;28;19913;-87
2023/09/05 04:12:52;;;;;;;;;;;;;;;25.38;56.73;101144.47;5057778;28;19917;-87
2023/09/05 04:15:21;;;;;;;;;;;;;;;25.38;56.82;101141.81;5046568;28;20290;-86
2023/09/05 04:17:47;;;;;;;;;;;;;;;25.43;56.36;101156.03;5066853;28;19924;-86
2023/09/05 04:20:13;;;;;;;;;;;;;;;25.47;56.50;101151.59;5046305;28;19917;-86
2023/09/05 04:22:38;;;;;;;;;;;;;;;25.41;56.32;101135.56;5058073;28;20356;-88
2023/09/05 04:25:04;;;;;;;;;;;;;;;25.29;56.74;101136.44;5055715;28;19924;-87
2023/09/05 04:27:29;;;;;;;;;;;;;;;25.41;56.23;101138.22;5055148;28;19917;-86
2023/09/05 04:29:55;;;;;;;;;;;;;;;25.42;56.14;101127.53;5033717;28;19920;-86
2023/09/05 04:32:27;;;;;;;;;;;;;;;25.38;56.63;101137.34;5052705;28;19928;-87
2023/09/05 04:34:56;;;;;;;;;;;;;;;25.30;56.59;101144.47;5051215;28;19920;-86
2023/09/05 04:37:21;;;;;;;;;;;;;;;25.30;56.58;101144.47;5058166;28;19920;-87
2023/09/05 04:39:47;;;;;;;;;;;;;;;25.37;56.49;101140.00;5040676;28;19917;-86
2023/09/05 04:42:12;;;;;;;;;;;;;;;25.35;56.43;101144.47;5042978;28;19971;-85
2023/09/05 04:44:38;;;;;;;;;;;;;;;25.31;56.52;101142.69;5035705;28;20394;-86
2023/09/05 04:47:22;;;;;;;;;;;;;;;25.29;56.52;101133.78;5047680;28;19917;-87
2023/09/05 04:49:48;;;;;;;;;;;;;;;25.30;56.63;101130.22;5064330;28;20538;-87
2023/09/05 04:52:14;;;;;;;;;;;;;;;25.36;56.47;101128.44;5058803;28;19920;-88
2023/09/05 04:54:41;;;;;;;;;;;;;;;25.34;56.52;101156.94;5059331;28;19923;-90
2023/09/05 04:57:06;;;;;;;;;;;;;;;25.23;56.69;101153.41;5048716;28;19955;-88
2023/09/05 04:59:31;;;;;;;;;;;;;;;25.24;56.81;101173.00;5045038;28;19956;-90
2023/09/05 05:01:57;;;;;;;;;;;;;;;25.19;56.63;101165.84;5053513;28;20479;-88
2023/09/05 05:04:23;;;;;;;;;;;;;;;25.25;56.52;101167.66;5061187;28;19917;-88
2023/09/05 05:06:52;;;;;;;;;;;;;;;25.34;56.64;101164.09;5041165;28;19967;-88
2023/09/05 05:09:18;;;;;;;;;;;;;;;25.29;56.50;101166.72;5056927;28;20385;-86
2023/09/05 05:11:43;;;;;;;;;;;;;;;25.35;56.25;101164.06;5052331;28;19924;-87
2023/09/05 05:14:10;;;;;;;;;;;;;;;25.30;56.40;101178.34;5058040;28;19989;-91
2023/09/05 05:16:36;;;;;;;;;;;;;;;25.29;56.47;101182.78;5063301;28;19916;-88
2023/09/05 05:19:02;;;;;;;;;;;;;;;25.29;56.44;101180.09;5039486;28;20470;-89
2023/09/05 05:21:27;;;;;;;;;;;;;;;25.26;56.62;101190.81;5060236;28;20388;-88
2023/09/05 05:23:55;;;;;;;;;;;;;;;25.34;56.16;101217.56;5069881;28;19921;-89
2023/09/05 05:26:23;;;;;;;;;;;;;;;25.37;56.27;101207.72;5065098;28;20470;-89
2023/09/05 05:28:48;;;;;;;;;;;;;;;25.28;56.41;101207.75;5043796;28;19952;-90
2023/09/05 05:31:14;;;;;;;;;;;;;;;25.24;56.61;101197.94;5038166;28;20433;-89
2023/09/05 05:33:39;;;;;;;;;;;;;;;25.25;56.67;101206.84;5029625;28;19917;-88
2023/09/05 05:36:05;;;;;;;;;;;;;;;25.33;56.30;101221.97;5052335;28;20011;-89
2023/09/05 05:38:30;;;;;;;;;;;;;;;25.28;56.23;101234.47;5027267;28;20386;-91
2023/09/05 05:40:57;;;;;;;;;;;;;;;25.15;56.82;101246.91;5057968;28;19962;-92
2023/09/05 05:43:29;;;;;;;;;;;;;;;25.19;56.78;101246.00;5059501;28;20302;-89
2023/09/05 05:45:54;;;;;;;;;;;;;;;25.17;56.63;101250.47;5056663;28;20385;-90
2023/09/05 05:48:20;;;;;;;;;;;;;;;25.17;56.32;101250.47;5039657;28;19921;-90
2023/09/05 05:50:46;;;;;;;;;;;;;;;25.14;56.74;101258.47;5066047;28;20283;-89
2023/09/05 05:53:13;;;;;;;;;;;;;;;25.16;56.71;101262.03;5075244;28;19921;-90
2023/09/05 05:55:41;;;;;;;;;;;;;;;25.09;56.90;101267.38;5058607;28;20000;-88
2023/09/05 05:58:06;;;;;;;;;;;;;;;24.94;57.08;101246.88;5072937;28;20405;-91
2023/09/05 06:00:34;;;;;;;;;;;;;;;24.90;57.25;101240.59;5073957;28;19919;-91
2023/09/05 06:03:00;;;;;;;;;;;;;;;24.92;57.39;101240.63;5071491;28;19968;-89
2023/09/05 06:05:25;;;;;;;;;;;;;;;24.99;57.15;101245.97;5055271;28;19921;-90
2023/09/05 06:07:53;;;;;;;;;;;;;;;24.95;57.36;101265.53;5073383;28;19925;-90
2023/09/05 06:10:21;;;;;;;;;;;;;;;24.86;57.78;101278.00;5059635;28;19913;-90
2023/09/05 06:12:47;;;;;;;;;;;;;;;24.90;57.60;101274.47;5076398;28;20006;-90
2023/09/05 06:15:13;;;;;;;;;;;;;;;24.91;57.56;101284.25;5074456;28;19917;-89
2023/09/05 06:17:39;;;;;;;;;;;;;;;24.91;57.71;101292.25;5043521;28;19917;-91
2023/09/05 06:20:06;;;;;;;;;;;;;;;24.94;57.82;101295.84;5053256;28;20008;-90
2023/09/05 06:22:31;;;;;;;;;;;;;;;25.01;57.60;101304.75;5067360;28;19921;-89
2023/09/05 06:24:57;;;;;;;;;;;;;;;25.10;57.54;101306.56;5063412;28;19924;-88
2023/09/05 06:27:22;;;;;;;;;;;;;;;25.09;57.29;101316.38;5071203;28;20291;-91
2023/09/05 06:29:48;;;;;;;;;;;;;;;25.17;57.39;101319.09;5037891;28;19913;-87
2023/09/05 06:32:13;;;;;;;;;;;;;;;25.21;57.32;101320.00;5036770;28;19917;-88
2023/09/05 06:34:40;;;;;;;;;;;;;;;25.17;57.56;101335.13;5040031;28;20452;-88
2023/09/05 06:37:05;;;;;;;;;;;;;;;25.21;57.60;101334.28;5037848;28;19960;-88
2023/09/05 06:39:33;;;;;;;;;;;;;;;25.13;57.87;101336.00;5051877;28;19971;-87
2023/09/05 06:41:59;;;;;;;;;;;;;;;25.13;57.80;101352.91;5043161;28;19999;-86
2023/09/05 06:44:27;;;;;;;;;;;;;;;25.12;57.53;101343.09;5042207;28;19953;-87
2023/09/05 06:46:53;;;;;;;;;;;;;;;25.22;57.50;101337.84;5033230;28;19919;-87
2023/09/05 06:49:18;;;;;;;;;;;;;;;25.17;58.12;101354.72;5066486;28;19921;-86
2023/09/05 06:51:44;;;;;;;;;;;;;;;25.01;58.38;101352.88;5065692;28;20377;-88
2023/09/05 06:54:10;;;;;;;;;;;;;;;25.14;58.16;101352.00;5040936;28;19913;-86
2023/09/05 06:56:36;;;;;;;;;;;;;;;25.14;58.38;101367.16;5045711;28;20377;-87
2023/09/05 06:59:03;;;;;;;;;;;;;;;25.01;59.04;101378.69;5070452;28;20658;-87
2023/09/05 07:01:29;;;;;;;;;;;;;;;25.07;58.50;101382.28;5034404;28;19913;-86
2023/09/05 07:03:54;;;;;;;;;;;;;;;25.07;58.96;101368.03;5034440;28;19912;-86
2023/09/05 07:06:21;;;;;;;;;;;;;;;25.16;58.54;101373.41;5065946;28;20031;-87
2023/09/05 07:08:46;;;;;;;;;;;;;;;25.12;58.39;101363.59;5065586;28;19917;-86
2023/09/05 07:11:14;;;;;;;;;;;;;;;25.15;58.31;101361.84;5039750;28;20082;-86
2023/09/05 07:13:39;;;;;;;;;;;;;;;25.16;57.92;101381.44;5045126;28;19919;-88
2023/09/05 07:16:05;;;;;;;;;;;;;;;25.12;58.25;101382.31;5046646;28;19921;-87
2023/09/05 07:18:30;;;;;;;;;;;;;;;25.04;58.01;101370.69;5075876;28;19920;-89
2023/09/05 07:20:55;;;;;;;;;;;;;;;25.10;58.05;101376.94;5046958;28;20400;-88
2023/09/05 07:23:21;;;;;;;;;;;;;;;25.16;57.85;101370.72;5080457;28;20401;-87
2023/09/05 07:25:46;;;;;;;;;;;;;;;25.22;57.68;101369.91;5063961;28;19916;-87
2023/09/05 07:28:15;;;;;;;;;;;;;;;25.12;57.57;101334.19;5054871;28;19912;-89
2023/09/05 07:30:41;;;;;;;;;;;;;;;25.22;57.57;101341.38;5054131;28;19956;-85
2023/09/05 07:33:06;;;;;;;;;;;;;;;25.24;57.38;101336.06;5055349;28;20429;-87
2023/09/05 07:35:32;;;;;;;;;;;;;;;25.23;57.36;101337.84;5052350;28;20008;-86
2023/09/05 07:37:57;;;;;;;;;;;;;;;25.24;57.48;101344.97;5057928;28;20003;-86
2023/09/05 07:40:32;;;;;;;;;;;;;;;25.25;57.67;101375.25;5049217;28;21579;-87
2023/09/05 07:43:15;;;;;;;;;;;;;;;25.18;57.63;101367.16;5053702;28;19923;-87
2023/09/05 07:45:41;;;;;;;;;;;;;;;25.07;57.94;101358.22;5044994;28;20068;-86
2023/09/05 07:48:09;;;;;;;;;;;;;;;25.10;58.13;101371.59;5043384;28;20306;-87
2023/09/05 07:50:35;;;;;;;;;;;;;;;25.18;57.72;101364.50;5048674;28;19925;-86
2023/09/05 07:53:01;;;;;;;;;;;;;;;25.19;57.81;101347.59;5082143;28;20066;-85
2023/09/05 07:55:26;;;;;;;;;;;;;;;25.15;58.26;101337.78;5054204;28;20130;-86
2023/09/05 07:57:52;;;;;;;;;;;;;;;25.20;57.99;101335.16;5085260;28;19916;-87
2023/09/05 08:00:27;;;;;;;;;;;;;;;25.12;58.39;101339.53;5080645;28;20013;-84
2023/09/05 08:02:52;;;;;;;;;;;;;;;25.12;58.60;101332.41;5042360;28;19923;-86
2023/09/05 08:05:17;;;;;;;;;;;;;;;25.05;58.80;101329.72;5083005;28;19916;-85
2023/09/05 08:07:46;;;;;;;;;;;;;;;25.06;58.83;101340.44;5028962;28;19917;-87
2023/09/05 08:10:11;;;;;;;;;;;;;;;25.10;58.52;101339.53;5049077;28;19913;-85
2023/09/05 08:12:37;;;;;;;;;;;;;;;25.03;58.64;101339.53;5073320;28;19923;-86
2023/09/05 08:15:09;;;;;;;;;;;;;;;24.95;58.14;101324.31;5075741;28;20341;-87
2023/09/05 08:17:35;;;;;;;;;;;;;;;25.12;58.48;101345.75;5049594;28;19916;-86
2023/09/05 08:20:00;;;;;;;;;;;;;;;25.13;57.88;101350.25;5033310;28;20283;-86
2023/09/05 08:22:26;;;;;;;;;;;;;;;25.09;58.61;101344.88;5085620;28;19931;-85
2023/09/05 08:24:52;;;;;;;;;;;;;;;25.15;58.35;101352.94;5041408;28;19956;-86
2023/09/05 08:27:19;;;;;;;;;;;;;;;25.15;58.04;101339.56;5086677;28;19916;-86
2023/09/05 08:29:44;;;;;;;;;;;;;;;25.15;58.28;101335.09;5051530;28;20371;-86
2023/09/05 08:32:11;;;;;;;;;;;;;;;25.18;58.25;101335.09;5059229;28;19971;-86
2023/09/05 08:34:40;;;;;;;;;;;;;;;25.16;57.68;101342.22;5058233;28;20073;-86
2023/09/05 08:37:06;;;;;;;;;;;;;;;25.12;57.96;101348.44;5066203;28;19917;-84
2023/09/05 08:39:31;;;;;;;;;;;;;;;25.15;58.17;101361.84;5047421;28;20454;-85
2023/09/05 08:41:57;;;;;;;;;;;;;;;25.18;58.13;101366.28;5036258;28;19936;-86
2023/09/05 08:44:23;;;;;;;;;;;;;;;25.14;57.91;101375.19;5039340;28;20394;-86
2023/09/05 08:46:48;;;;;;;;;;;;;;;25.10;58.27;101374.25;5038133;28;19913;-87
2023/09/05 08:49:13;;;;;;;;;;;;;;;25.18;58.02;101371.63;5074074;28;19960;-86
2023/09/05 08:51:39;;;;;;;;;;;;;;;25.14;57.96;101380.53;5050242;28;20373;-87
2023/09/05 08:54:06;;;;;;;;;;;;;;;25.14;58.08;101392.09;5040662;28;20385;-86
2023/09/05 08:56:32;;;;;;;;;;;;;;;25.18;57.91;101404.59;5059894;28;19924;-85
2023/09/05 08:58:58;;;;;;;;;;;;;;;25.06;58.03;101407.25;5047102;28;19913;-86
2023/09/05 09:01:27;;;;;;;;;;;;;;;25.10;57.80;101408.13;5052929;28;20369;-88
2023/09/05 09:03:54;;;;;;;;;;;;;;;25.16;57.94;101421.53;5059422;28;19924;-87
2023/09/05 09:06:24;;;;;;;;;;;;;;;25.06;58.13;101423.28;5030869;28;19913;-86
2023/09/05 09:08:49;;;;;;;;;;;;;;;24.94;58.59;101429.44;5063115;28;20370;-86
2023/09/05 09:11:15;;;;;;;;;;;;;;;24.91;58.69;101423.19;5033692;28;19974;-88
2023/09/05 09:13:43;;;;;;;;;;;;;;;24.91;58.16;101432.13;5070359;28;19913;-89
2023/09/05 09:16:09;;;;;;;;;;;;;;;24.90;58.43;101426.75;5049806;28;19976;-90
2023/09/05 09:18:40;;;;;;;;;;;;;;;24.86;58.53;101427.63;5030630;28;20412;-89
2023/09/05 09:21:08;;;;;;;;;;;;;;;24.81;58.56;101424.94;5070681;28;20026;-89
2023/09/05 09:23:35;;;;;;;;;;;;;;;24.85;58.31;101432.06;5051204;28;19917;-90
2023/09/05 09:26:01;;;;;;;;;;;;;;;24.79;58.72;101434.72;5041768;28;19917;-89
2023/09/05 09:28:32;;;;;;;;;;;;;;;24.83;58.34;101428.50;5035419;28;20365;-88
2023/09/05 09:31:17;;;;;;;;;;;;;;;24.73;58.55;101411.50;5054642;28;19967;-88
2023/09/05 09:33:43;;;;;;;;;;;;;;;24.79;58.57;101416.00;5038898;28;20007;-89
2023/09/05 09:36:12;;;;;;;;;;;;;;;24.81;58.41;101416.91;5047344;28;20011;-88
2023/09/05 09:38:38;;;;;;;;;;;;;;;24.94;58.13;101409.84;5052767;28;20301;-88
2023/09/05 09:41:06;;;;;;;;;;;;;;;24.89;58.25;101399.16;5047095;28;20004;-88
2023/09/05 09:43:32;;;;;;;;;;;;;;;24.92;57.73;101385.78;5033913;28;20420;-88
2023/09/05 09:46:00;;;;;;;;;;;;;;;24.92;57.91;101382.22;5050528;28;20412;-89
2023/09/05 09:48:28;;;;;;;;;;;;;;;24.87;57.99;101408.00;5026851;28;19926;-88
2023/09/05 09:50:54;;;;;;;;;;;;;;;24.98;57.89;101425.91;5048875;28;19920;-89
2023/09/05 09:53:22;;;;;;;;;;;;;;;24.94;57.81;101441.91;5020139;28;19922;-89
2023/09/05 09:55:47;;;;;;;;;;;;;;;24.91;57.94;101444.56;5019633;28;19929;-88
2023/09/05 09:58:18;;;;;;;;;;;;;;;24.88;57.99;101441.88;5027237;28;19914;-88
2023/09/05 10:00:45;;;;;;;;;;;;;;;24.96;57.83;101451.72;5042397;28;19913;-88
2023/09/05 10:03:15;;;;;;;;;;;;;;;24.93;57.69;101454.38;5033829;28;20044;-89
2023/09/05 10:05:41;;;;;;;;;;;;;;;24.98;57.67;101439.25;5053847;28;19992;-90
2023/09/05 10:08:10;;;;;;;;;;;;;;;24.97;57.72;101441.91;5045942;28;19917;-88
2023/09/05 10:10:39;;;;;;;;;;;;;;;24.93;57.98;101435.69;5037626;28;20424;-86
2023/09/05 10:13:06;;;;;;;;;;;;;;;24.99;57.77;101440.16;5048781;28;19928;-88
2023/09/05 10:15:31;;;;;;;;;;;;;;;25.01;57.78;101453.53;5025695;28;19917;-89
2023/09/05 10:17:57;;;;;;;;;;;;;;;24.95;57.82;101447.25;5010737;28;19917;-89
2023/09/05 10:20:25;;;;;;;;;;;;;;;24.98;57.66;101457.09;5024233;28;19917;-90
2023/09/05 10:22:53;;;;;;;;;;;;;;;24.99;57.75;101454.41;5051480;28;19995;-88
2023/09/05 10:25:19;;;;;;;;;;;;;;;24.88;57.95;101450.78;5059532;28;19977;-88
2023/09/05 10:27:45;;;;;;;;;;;;;;;24.96;57.62;101442.81;5041951;28;19917;-89
2023/09/05 10:30:10;;;;;;;;;;;;;;;24.91;57.84;101437.44;5020208;28;20444;-89
2023/09/05 10:32:36;;;;;;;;;;;;;;;24.81;57.99;101440.94;5047643;28;19921;-89
2023/09/05 10:35:02;;;;;;;;;;;;;;;24.88;57.79;101440.09;5014232;28;19914;-89
2023/09/05 10:37:34;;;;;;;;;;;;;;;24.88;57.94;101445.44;5046997;28;20378;-88
2023/09/05 10:40:07;;;;;;;;;;;;;;;24.91;57.79;101447.22;5052500;28;20371;-88
2023/09/05 10:42:34;;;;;;;;;;;;;;;24.91;57.88;101445.47;5030472;28;20000;-90
2023/09/05 10:45:16;;;;;;;;;;;;;;;24.89;58.15;101449.00;5022302;28;19926;-90
2023/09/05 10:47:41;;;;;;;;;;;;;;;24.91;58.02;101450.81;5027035;28;19925;-90
2023/09/05 10:50:09;;;;;;;;;;;;;;;24.91;57.80;101445.47;5043504;28;19916;-92
2023/09/05 10:52:34;;;;;;;;;;;;;;;24.86;58.10;101440.97;5078288;28;19920;-89
2023/09/05 10:55:20;;;;;;;;;;;;;;;24.88;57.70;101447.22;5069890;28;19939;-89
2023/09/05 10:57:50;;;;;;;;;;;;;;;24.94;57.95;101441.91;5079181;28;19923;-91
2023/09/05 11:00:26;;;;;;;;;;;;;;;24.89;57.87;101433.88;5037338;28;19920;-90
2023/09/05 11:02:53;;;;;;;;;;;;;;;24.89;57.87;101430.28;5062407;28;19913;-91
2023/09/05 11:05:19;;;;;;;;;;;;;;;24.88;57.98;101432.06;5053628;28;19913;-91
2023/09/05 11:07:50;;;;;;;;;;;;;;;24.89;57.99;101427.63;5055086;28;19916;-89
2023/09/05 11:10:26;;;;;;;;;;;;;;;24.89;58.08;101428.53;5038366;28;19923;-90
2023/09/05 11:12:54;;;;;;;;;;;;;;;24.89;57.82;101422.28;5072213;28;19925;-91
2023/09/05 11:15:30;;;;;;;;;;;;;;;24.90;58.06;101427.63;5073840;28;20313;-91
2023/09/05 11:17:59;;;;;;;;;;;;;;;24.87;58.01;101421.38;5066146;28;20372;-90
2023/09/05 11:20:38;;;;;;;;;;;;;;;24.88;57.71;101425.84;5058201;28;20286;-92
2023/09/05 11:23:30;;;;;;;;;;;;;;;24.82;57.88;101428.47;5054959;28;19967;-91
2023/09/05 11:25:56;;;;;;;;;;;;;;;24.86;57.93;101422.28;5053840;28;19917;-90
2023/09/05 11:28:22;;;;;;;;;;;;;;;24.85;57.86;101416.03;5059969;28;20481;-91
2023/09/05 11:30:52;;;;;;;;;;;;;;;24.84;58.26;101406.22;5053073;28;19913;-89
2023/09/05 11:33:19;;;;;;;;;;;;;;;24.81;57.79;101414.25;5070690;28;19921;-91
2023/09/05 11:35:45;;;;;;;;;;;;;;;24.76;58.06;101414.22;5071207;28;19924;-89
2023/09/05 11:38:12;;;;;;;;;;;;;;;24.77;58.25;101409.75;5041450;28;20023;-91
2023/09/05 11:40:40;;;;;;;;;;;;;;;24.78;58.04;101404.41;5066228;28;19923;-92
2023/09/05 11:43:10;;;;;;;;;;;;;;;24.81;58.16;101410.66;5064982;28;19916;-90
2023/09/05 11:45:37;;;;;;;;;;;;;;;24.82;58.26;101417.78;5051901;28;19990;-88
2023/09/05 11:48:11;;;;;;;;;;;;;;;24.74;58.67;101416.00;5064346;28;19927;-88
2023/09/05 11:50:46;;;;;;;;;;;;;;;24.74;58.59;101420.41;5068099;28;19928;-87
2023/09/05 11:53:12;;;;;;;;;;;;;;;24.76;58.53;101418.63;5069146;28;19920;-86
2023/09/05 11:55:38;;;;;;;;;;;;;;;24.75;58.49;101417.75;5036019;28;20043;-86
2023/09/05 11:58:06;;;;;;;;;;;;;;;24.78;58.25;101433.78;5063376;28;20133;-86
2023/09/05 12:00:35;;;;;;;;;;;;;;;24.77;58.39;101425.78;5056848;28;19944;-85
2023/09/05 12:03:00;;;;;;;;;;;;;;;24.75;58.47;101428.44;5051986;28;19943;-86
2023/09/05 12:05:26;;;;;;;;;;;;;;;24.74;58.42;101428.44;5051346;28;19917;-87
2023/09/05 12:07:55;;;;;;;;;;;;;;;24.78;58.33;101436.47;5070066;28;19939;-88
2023/09/05 12:10:24;;;;;;;;;;;;;;;24.79;58.40;101440.94;5070876;28;19934;-87
2023/09/05 12:13:02;;;;;;;;;;;;;;;24.75;58.68;101432.91;5067945;28;19939;-86
2023/09/05 12:15:32;;;;;;;;;;;;;;;24.76;58.24;101434.66;5070760;28;20010;-85
2023/09/05 12:18:04;;;;;;;;;;;;;;;24.68;58.90;101431.97;5068417;28;19916;-89
2023/09/05 12:20:30;;;;;;;;;;;;;;;24.69;58.16;101416.84;5040207;28;20004;-88
2023/09/05 12:22:56;;;;;;;;;;;;;;;24.62;59.20;101414.97;5053404;28;19916;-86
2023/09/05 12:25:24;;;;;;;;;;;;;;;24.63;58.70;101423.03;5054261;28;19920;-85
2023/09/05 12:27:50;;;;;;;;;;;;;;;24.65;59.30;101410.56;5070934;28;19916;-87
2023/09/05 12:30:25;;;;;;;;;;;;;;;24.63;59.28;101454.19;5053425;28;20010;-87
2023/09/05 12:32:52;;;;;;;;;;;;;;;24.52;60.01;101419.38;5069422;28;19954;-85
2023/09/05 12:35:17;;;;;;;;;;;;;;;24.52;60.73;101414.06;5052052;28;19981;-84